sensor_id;sensor_type;location;lat;lon;timestamp;temperature;humidity
15636;DHT22;7917;50.818;6.972;2023-08-20T00:01:16;20.90;99.90
15636;DHT22;7917;50.818;6.972;2023-08-20T00:03:46;20.80;99.90
15636;DHT22;7917;50.818;6.972;2023-08-20T00:06:13;20.80;99.90
15636;DHT22;7917;50.818;6.972;2023-08-20T00:08:40;20.80;99.90
15636;DHT22;7917;50.818;6.972;2023-08-20T00:11:06;20.80;99.90
15636;DHT22;7917;50.818;6.972;2023-08-20T00:13:34;20.70;99.90
15636;DHT22;7917;50.818;6.972;2023-08-20T00:16:01;20.70;99.90
15636;DHT22;7917;50.818;6.972;2023-08-20T00:18:29;20.60;99.90
15636;DHT22;7917;50.818;6.972;2023-08-20T00:20:56;20.60;99.90
15636;DHT22;7917;50.818;6.972;2023-08-20T00:23:23;20.60;99.90
15636;DHT22;7917;50.818;6.972;2023-08-20T00:25:50;20.60;99.90
15636;DHT22;7917;50.818;6.972;2023-08-20T00:28:20;20.50;99.90
15636;DHT22;7917;50.818;6.972;2023-08-20T00:30:47;20.50;99.90
15636;DHT22;7917;50.818;6.972;2023-08-20T00:33:14;20.50;99.90
15636;DHT22;7917;50.818;6.972;2023-08-20T00:35:41;20.50;99.90
15636;DHT22;7917;50.818;6.972;2023-08-20T00:38:07;20.40;99.90
15636;DHT22;7917;50.818;6.972;2023-08-20T00:40:34;20.40;99.90
15636;DHT22;7917;50.818;6.972;2023-08-20T00:43:00;20.30;99.90
15636;DHT22;7917;50.818;6.972;2023-08-20T00:45:27;20.30;99.90
15636;DHT22;7917;50.818;6.972;2023-08-20T00:47:54;20.20;99.90
15636;DHT22;7917;50.818;6.972;2023-08-20T00:53:34;20.10;99.90
15636;DHT22;7917;50.818;6.972;2023-08-20T00:56:00;20.10;99.90
15636;DHT22;7917;50.818;6.972;2023-08-20T00:58:27;20.10;99.90
15636;DHT22;7917;50.818;6.972;2023-08-20T01:00:54;20.10;99.90
15636;DHT22;7917;50.818;6.972;2023-08-20T01:03:21;20.20;99.90
15636;DHT22;7917;50.818;6.972;2023-08-20T01:05:53;20.10;99.90
15636;DHT22;7917;50.818;6.972;2023-08-20T01:08:28;20.10;99.90
15636;DHT22;7917;50.818;6.972;2023-08-20T01:11:00;20.10;99.90
15636;DHT22;7917;50.818;6.972;2023-08-20T01:13:27;20.00;99.90
15636;DHT22;7917;50.818;6.972;2023-08-20T01:15:53;20.00;99.90
15636;DHT22;7917;50.818;6.972;2023-08-20T01:18:20;19.90;99.90
15636;DHT22;7917;50.818;6.972;2023-08-20T01:20:52;19.80;99.90
15636;DHT22;7917;50.818;6.972;2023-08-20T01:26:31;19.70;99.90
15636;DHT22;7917;50.818;6.972;2023-08-20T01:29:03;19.80;99.90
15636;DHT22;7917;50.818;6.972;2023-08-20T01:31:30;19.70;99.90
15636;DHT22;7917;50.818;6.972;2023-08-20T01:33:57;19.60;99.90
15636;DHT22;7917;50.818;6.972;2023-08-20T01:36:24;19.60;99.90
15636;DHT22;7917;50.818;6.972;2023-08-20T01:38:50;19.50;99.90
15636;DHT22;7917;50.818;6.972;2023-08-20T01:41:17;19.50;99.90
15636;DHT22;7917;50.818;6.972;2023-08-20T01:43:43;19.50;99.90
15636;DHT22;7917;50.818;6.972;2023-08-20T01:46:10;19.70;99.90
15636;DHT22;7917;50.818;6.972;2023-08-20T01:48:38;19.70;99.90
15636;DHT22;7917;50.818;6.972;2023-08-20T01:51:04;19.70;99.90
15636;DHT22;7917;50.818;6.972;2023-08-20T01:53:31;19.70;99.90
15636;DHT22;7917;50.818;6.972;2023-08-20T01:55:58;19.70;99.90
15636;DHT22;7917;50.818;6.972;2023-08-20T01:58:24;19.70;99.90
15636;DHT22;7917;50.818;6.972;2023-08-20T02:00:51;19.70;99.90
15636;DHT22;7917;50.818;6.972;2023-08-20T02:03:19;19.70;99.90
15636;DHT22;7917;50.818;6.972;2023-08-20T02:05:45;19.70;99.90
15636;DHT22;7917;50.818;6.972;2023-08-20T02:08:11;19.70;99.90
15636;DHT22;7917;50.818;6.972;2023-08-20T02:10:38;19.70;99.90
15636;DHT22;7917;50.818;6.972;2023-08-20T02:13:04;19.70;99.90
15636;DHT22;7917;50.818;6.972;2023-08-20T02:15:32;19.70;99.90
15636;DHT22;7917;50.818;6.972;2023-08-20T02:17:59;19.70;99.90
15636;DHT22;7917;50.818;6.972;2023-08-20T02:20:27;19.70;99.90
15636;DHT22;7917;50.818;6.972;2023-08-20T02:22:54;19.60;99.90
15636;DHT22;7917;50.818;6.972;2023-08-20T02:25:20;19.60;99.90
15636;DHT22;7917;50.818;6.972;2023-08-20T02:27:46;19.50;99.90
15636;DHT22;7917;50.818;6.972;2023-08-20T02:30:13;19.50;99.90
15636;DHT22;7917;50.818;6.972;2023-08-20T02:32:39;19.50;99.90
15636;DHT22;7917;50.818;6.972;2023-08-20T02:35:06;19.40;99.90
15636;DHT22;7917;50.818;6.972;2023-08-20T02:37:33;19.40;99.90
15636;DHT22;7917;50.818;6.972;2023-08-20T02:40:00;19.30;99.90
15636;DHT22;7917;50.818;6.972;2023-08-20T02:42:27;19.30;99.90
15636;DHT22;7917;50.818;6.972;2023-08-20T02:44:53;19.30;99.90
15636;DHT22;7917;50.818;6.972;2023-08-20T02:47:19;19.40;99.90
15636;DHT22;7917;50.818;6.972;2023-08-20T02:49:46;19.30;99.90
15636;DHT22;7917;50.818;6.972;2023-08-20T02:52:12;19.30;99.90
15636;DHT22;7917;50.818;6.972;2023-08-20T02:54:39;19.40;99.90
15636;DHT22;7917;50.818;6.972;2023-08-20T02:57:05;19.40;99.90
15636;DHT22;7917;50.818;6.972;2023-08-20T02:59:32;19.50;99.90
15636;DHT22;7917;50.818;6.972;2023-08-20T03:05:22;19.60;99.90
15636;DHT22;7917;50.818;6.972;2023-08-20T03:07:48;19.60;99.90
15636;DHT22;7917;50.818;6.972;2023-08-20T03:10:16;19.70;99.90
15636;DHT22;7917;50.818;6.972;2023-08-20T03:12:42;19.70;99.90
15636;DHT22;7917;50.818;6.972;2023-08-20T03:15:09;19.70;99.90
15636;DHT22;7917;50.818;6.972;2023-08-20T03:17:35;19.60;99.90
15636;DHT22;7917;50.818;6.972;2023-08-20T03:20:02;19.60;99.90
15636;DHT22;7917;50.818;6.972;2023-08-20T03:22:31;19.60;99.90
15636;DHT22;7917;50.818;6.972;2023-08-20T03:24:58;19.60;99.90
15636;DHT22;7917;50.818;6.972;2023-08-20T03:27:25;19.60;99.90
15636;DHT22;7917;50.818;6.972;2023-08-20T03:29:52;19.50;99.90
15636;DHT22;7917;50.818;6.972;2023-08-20T03:32:19;19.40;99.90
15636;DHT22;7917;50.818;6.972;2023-08-20T03:34:47;19.50;99.90
15636;DHT22;7917;50.818;6.972;2023-08-20T03:37:14;19.50;99.90
15636;DHT22;7917;50.818;6.972;2023-08-20T03:39:40;19.50;99.90
15636;DHT22;7917;50.818;6.972;2023-08-20T03:42:07;19.50;99.90
15636;DHT22;7917;50.818;6.972;2023-08-20T03:44:34;19.40;99.90
15636;DHT22;7917;50.818;6.972;2023-08-20T03:47:00;19.50;99.90
15636;DHT22;7917;50.818;6.972;2023-08-20T03:49:26;19.50;99.90
15636;DHT22;7917;50.818;6.972;2023-08-20T03:51:53;19.50;99.90
15636;DHT22;7917;50.818;6.972;2023-08-20T03:54:19;19.50;99.90
15636;DHT22;7917;50.818;6.972;2023-08-20T03:56:46;19.60;99.90
15636;DHT22;7917;50.818;6.972;2023-08-20T03:59:12;19.50;99.90
15636;DHT22;7917;50.818;6.972;2023-08-20T04:01:39;19.60;99.90
15636;DHT22;7917;50.818;6.972;2023-08-20T04:04:06;19.60;99.90
15636;DHT22;7917;50.818;6.972;2023-08-20T04:06:32;19.50;99.90
15636;DHT22;7917;50.818;6.972;2023-08-20T04:08:58;19.50;99.90
15636;DHT22;7917;50.818;6.972;2023-08-20T04:11:25;19.50;99.90
15636;DHT22;7917;50.818;6.972;2023-08-20T04:13:51;19.40;99.90
15636;DHT22;7917;50.818;6.972;2023-08-20T04:16:17;19.40;99.90
15636;DHT22;7917;50.818;6.972;2023-08-20T04:18:45;19.40;99.90
15636;DHT22;7917;50.818;6.972;2023-08-20T04:21:11;19.30;99.90
15636;DHT22;7917;50.818;6.972;2023-08-20T04:23:37;19.20;99.90
15636;DHT22;7917;50.818;6.972;2023-08-20T04:26:04;19.20;99.90
15636;DHT22;7917;50.818;6.972;2023-08-20T04:28:30;19.20;99.90
15636;DHT22;7917;50.818;6.972;2023-08-20T04:30:56;19.20;99.90
15636;DHT22;7917;50.818;6.972;2023-08-20T04:33:23;19.20;99.90
15636;DHT22;7917;50.818;6.972;2023-08-20T04:35:50;19.20;99.90
15636;DHT22;7917;50.818;6.972;2023-08-20T04:38:17;19.20;99.90
15636;DHT22;7917;50.818;6.972;2023-08-20T04:40:46;19.20;99.90
15636;DHT22;7917;50.818;6.972;2023-08-20T04:43:12;19.20;99.90
15636;DHT22;7917;50.818;6.972;2023-08-20T04:45:39;19.20;99.90
15636;DHT22;7917;50.818;6.972;2023-08-20T04:48:06;19.20;99.90
15636;DHT22;7917;50.818;6.972;2023-08-20T04:50:32;19.20;99.90
15636;DHT22;7917;50.818;6.972;2023-08-20T04:52:59;19.20;99.90
15636;DHT22;7917;50.818;6.972;2023-08-20T04:55:26;19.20;99.90
15636;DHT22;7917;50.818;6.972;2023-08-20T04:57:53;19.20;99.90
15636;DHT22;7917;50.818;6.972;2023-08-20T05:00:20;19.20;99.90
15636;DHT22;7917;50.818;6.972;2023-08-20T05:02:47;19.20;99.90
15636;DHT22;7917;50.818;6.972;2023-08-20T05:05:13;19.30;99.90
15636;DHT22;7917;50.818;6.972;2023-08-20T05:07:40;19.30;99.90
15636;DHT22;7917;50.818;6.972;2023-08-20T05:10:08;19.30;99.90
15636;DHT22;7917;50.818;6.972;2023-08-20T05:12:34;19.20;99.90
15636;DHT22;7917;50.818;6.972;2023-08-20T05:15:01;19.30;99.90
15636;DHT22;7917;50.818;6.972;2023-08-20T05:17:27;19.40;99.90
15636;DHT22;7917;50.818;6.972;2023-08-20T05:19:54;19.50;99.90
15636;DHT22;7917;50.818;6.972;2023-08-20T05:22:20;19.60;99.90
15636;DHT22;7917;50.818;6.972;2023-08-20T05:24:47;19.60;99.90
15636;DHT22;7917;50.818;6.972;2023-08-20T05:27:15;19.70;99.90
15636;DHT22;7917;50.818;6.972;2023-08-20T05:29:43;19.60;99.90
15636;DHT22;7917;50.818;6.972;2023-08-20T05:32:09;19.70;99.90
15636;DHT22;7917;50.818;6.972;2023-08-20T05:34:36;19.60;99.90
15636;DHT22;7917;50.818;6.972;2023-08-20T05:37:02;19.60;99.90
15636;DHT22;7917;50.818;6.972;2023-08-20T05:39:30;19.60;99.90
15636;DHT22;7917;50.818;6.972;2023-08-20T05:41:56;19.60;99.90
15636;DHT22;7917;50.818;6.972;2023-08-20T05:44:23;19.60;99.90
15636;DHT22;7917;50.818;6.972;2023-08-20T05:46:50;19.70;99.90
15636;DHT22;7917;50.818;6.972;2023-08-20T05:49:16;19.70;99.90
15636;DHT22;7917;50.818;6.972;2023-08-20T05:51:43;19.80;99.90
15636;DHT22;7917;50.818;6.972;2023-08-20T05:54:10;19.90;99.90
15636;DHT22;7917;50.818;6.972;2023-08-20T05:56:36;20.00;99.90
15636;DHT22;7917;50.818;6.972;2023-08-20T05:59:03;20.20;99.90
15636;DHT22;7917;50.818;6.972;2023-08-20T06:01:30;20.40;99.90
15636;DHT22;7917;50.818;6.972;2023-08-20T06:03:57;20.50;99.90
15636;DHT22;7917;50.818;6.972;2023-08-20T06:06:23;20.70;99.90
15636;DHT22;7917;50.818;6.972;2023-08-20T06:08:50;20.80;99.90
15636;DHT22;7917;50.818;6.972;2023-08-20T06:11:16;20.90;99.90
15636;DHT22;7917;50.818;6.972;2023-08-20T06:13:43;21.00;99.90
15636;DHT22;7917;50.818;6.972;2023-08-20T06:16:09;21.10;99.90
15636;DHT22;7917;50.818;6.972;2023-08-20T06:18:36;21.10;99.90
15636;DHT22;7917;50.818;6.972;2023-08-20T06:21:03;21.20;99.90
15636;DHT22;7917;50.818;6.972;2023-08-20T06:23:29;21.20;99.90
15636;DHT22;7917;50.818;6.972;2023-08-20T06:25:56;21.20;99.90
15636;DHT22;7917;50.818;6.972;2023-08-20T06:28:22;21.20;99.90
15636;DHT22;7917;50.818;6.972;2023-08-20T06:30:49;21.40;99.90
15636;DHT22;7917;50.818;6.972;2023-08-20T06:33:15;21.50;99.90
15636;DHT22;7917;50.818;6.972;2023-08-20T06:35:42;21.70;99.90
15636;DHT22;7917;50.818;6.972;2023-08-20T06:38:09;21.90;99.90
15636;DHT22;7917;50.818;6.972;2023-08-20T06:40:35;21.90;99.90
15636;DHT22;7917;50.818;6.972;2023-08-20T06:43:02;22.00;99.90
15636;DHT22;7917;50.818;6.972;2023-08-20T06:45:29;22.10;99.90
15636;DHT22;7917;50.818;6.972;2023-08-20T06:47:55;22.20;99.90
15636;DHT22;7917;50.818;6.972;2023-08-20T06:50:23;22.20;99.90
15636;DHT22;7917;50.818;6.972;2023-08-20T06:52:50;22.30;99.90
15636;DHT22;7917;50.818;6.972;2023-08-20T06:55:17;22.40;99.90
15636;DHT22;7917;50.818;6.972;2023-08-20T06:57:43;22.50;99.90
15636;DHT22;7917;50.818;6.972;2023-08-20T07:00:10;22.70;99.90
15636;DHT22;7917;50.818;6.972;2023-08-20T07:02:36;22.80;99.90
15636;DHT22;7917;50.818;6.972;2023-08-20T07:05:03;22.70;99.90
15636;DHT22;7917;50.818;6.972;2023-08-20T07:07:29;22.80;99.90
15636;DHT22;7917;50.818;6.972;2023-08-20T07:09:57;22.90;99.90
15636;DHT22;7917;50.818;6.972;2023-08-20T07:12:23;23.00;99.90
15636;DHT22;7917;50.818;6.972;2023-08-20T07:14:49;23.00;99.90
15636;DHT22;7917;50.818;6.972;2023-08-20T07:17:16;23.10;99.90
15636;DHT22;7917;50.818;6.972;2023-08-20T07:19:42;23.10;99.90
15636;DHT22;7917;50.818;6.972;2023-08-20T07:22:09;23.30;99.90
15636;DHT22;7917;50.818;6.972;2023-08-20T07:24:35;23.40;99.90
15636;DHT22;7917;50.818;6.972;2023-08-20T07:27:03;23.60;99.90
15636;DHT22;7917;50.818;6.972;2023-08-20T07:29:36;23.60;99.90
15636;DHT22;7917;50.818;6.972;2023-08-20T07:32:02;24.00;99.90
15636;DHT22;7917;50.818;6.972;2023-08-20T07:34:29;24.20;99.90
15636;DHT22;7917;50.818;6.972;2023-08-20T07:36:56;24.30;99.90
15636;DHT22;7917;50.818;6.972;2023-08-20T07:39:23;24.30;99.90
15636;DHT22;7917;50.818;6.972;2023-08-20T07:41:49;24.40;99.90
15636;DHT22;7917;50.818;6.972;2023-08-20T07:44:16;24.20;99.90
15636;DHT22;7917;50.818;6.972;2023-08-20T07:46:43;24.20;99.90
15636;DHT22;7917;50.818;6.972;2023-08-20T07:49:09;24.30;99.90
15636;DHT22;7917;50.818;6.972;2023-08-20T07:51:36;24.20;99.90
15636;DHT22;7917;50.818;6.972;2023-08-20T07:54:03;24.30;99.90
15636;DHT22;7917;50.818;6.972;2023-08-20T07:56:30;24.40;99.90
15636;DHT22;7917;50.818;6.972;2023-08-20T07:58:56;24.50;99.90
15636;DHT22;7917;50.818;6.972;2023-08-20T08:01:23;24.40;99.90
15636;DHT22;7917;50.818;6.972;2023-08-20T08:03:50;24.50;99.90
15636;DHT22;7917;50.818;6.972;2023-08-20T08:06:17;24.70;99.90
15636;DHT22;7917;50.818;6.972;2023-08-20T08:08:43;25.00;99.90
15636;DHT22;7917;50.818;6.972;2023-08-20T08:11:10;25.10;99.90
15636;DHT22;7917;50.818;6.972;2023-08-20T08:13:37;25.00;99.90
15636;DHT22;7917;50.818;6.972;2023-08-20T08:16:03;25.20;99.90
15636;DHT22;7917;50.818;6.972;2023-08-20T08:18:31;25.40;99.90
15636;DHT22;7917;50.818;6.972;2023-08-20T08:20:57;25.30;99.90
15636;DHT22;7917;50.818;6.972;2023-08-20T08:23:24;25.40;99.90
15636;DHT22;7917;50.818;6.972;2023-08-20T08:25:51;25.40;99.90
15636;DHT22;7917;50.818;6.972;2023-08-20T08:28:17;25.70;99.90
15636;DHT22;7917;50.818;6.972;2023-08-20T08:30:44;25.70;99.90
15636;DHT22;7917;50.818;6.972;2023-08-20T08:33:10;25.60;99.90
15636;DHT22;7917;50.818;6.972;2023-08-20T08:35:38;25.70;99.90
15636;DHT22;7917;50.818;6.972;2023-08-20T08:38:05;25.60;99.90
15636;DHT22;7917;50.818;6.972;2023-08-20T08:40:31;25.90;99.90
15636;DHT22;7917;50.818;6.972;2023-08-20T08:43:00;26.00;99.90
15636;DHT22;7917;50.818;6.972;2023-08-20T08:45:28;26.00;99.90
15636;DHT22;7917;50.818;6.972;2023-08-20T08:47:55;25.70;99.90
15636;DHT22;7917;50.818;6.972;2023-08-20T08:50:22;25.70;99.90
15636;DHT22;7917;50.818;6.972;2023-08-20T08:52:51;26.10;99.90
15636;DHT22;7917;50.818;6.972;2023-08-20T08:55:18;26.10;99.90
15636;DHT22;7917;50.818;6.972;2023-08-20T08:57:45;26.30;99.90
15636;DHT22;7917;50.818;6.972;2023-08-20T09:00:13;26.50;99.90
15636;DHT22;7917;50.818;6.972;2023-08-20T09:02:40;26.40;99.90
15636;DHT22;7917;50.818;6.972;2023-08-20T09:05:07;26.70;99.90
15636;DHT22;7917;50.818;6.972;2023-08-20T09:07:34;26.90;99.90
15636;DHT22;7917;50.818;6.972;2023-08-20T09:10:01;27.00;99.90
15636;DHT22;7917;50.818;6.972;2023-08-20T09:12:28;26.60;99.90
15636;DHT22;7917;50.818;6.972;2023-08-20T09:15:00;26.50;99.90
15636;DHT22;7917;50.818;6.972;2023-08-20T09:17:28;26.40;99.90
15636;DHT22;7917;50.818;6.972;2023-08-20T09:19:55;26.70;99.90
15636;DHT22;7917;50.818;6.972;2023-08-20T09:22:23;26.80;99.90
15636;DHT22;7917;50.818;6.972;2023-08-20T09:24:54;26.90;99.90
15636;DHT22;7917;50.818;6.972;2023-08-20T09:27:21;27.20;99.90
15636;DHT22;7917;50.818;6.972;2023-08-20T09:29:49;27.30;99.90
15636;DHT22;7917;50.818;6.972;2023-08-20T09:32:18;27.40;99.90
15636;DHT22;7917;50.818;6.972;2023-08-20T09:34:45;27.60;99.90
15636;DHT22;7917;50.818;6.972;2023-08-20T09:37:14;27.80;99.90
15636;DHT22;7917;50.818;6.972;2023-08-20T09:39:41;28.00;99.90
15636;DHT22;7917;50.818;6.972;2023-08-20T09:42:09;27.80;99.90
15636;DHT22;7917;50.818;6.972;2023-08-20T09:44:38;27.70;99.90
15636;DHT22;7917;50.818;6.972;2023-08-20T09:47:07;27.70;99.90
15636;DHT22;7917;50.818;6.972;2023-08-20T09:49:37;27.60;99.90
15636;DHT22;7917;50.818;6.972;2023-08-20T09:52:06;27.40;99.90
15636;DHT22;7917;50.818;6.972;2023-08-20T09:54:42;27.20;99.90
15636;DHT22;7917;50.818;6.972;2023-08-20T09:57:18;27.20;99.90
15636;DHT22;7917;50.818;6.972;2023-08-20T09:59:51;27.30;99.90
15636;DHT22;7917;50.818;6.972;2023-08-20T10:02:19;27.60;99.90
15636;DHT22;7917;50.818;6.972;2023-08-20T10:04:45;27.70;99.90
15636;DHT22;7917;50.818;6.972;2023-08-20T10:07:14;27.90;99.90
15636;DHT22;7917;50.818;6.972;2023-08-20T10:09:42;28.10;99.90
15636;DHT22;7917;50.818;6.972;2023-08-20T10:12:12;27.70;99.90
15636;DHT22;7917;50.818;6.972;2023-08-20T10:14:39;27.40;99.90
15636;DHT22;7917;50.818;6.972;2023-08-20T10:17:08;27.00;99.90
15636;DHT22;7917;50.818;6.972;2023-08-20T10:19:36;27.00;99.90
15636;DHT22;7917;50.818;6.972;2023-08-20T10:22:03;27.00;99.90
15636;DHT22;7917;50.818;6.972;2023-08-20T10:24:40;27.30;99.90
15636;DHT22;7917;50.818;6.972;2023-08-20T10:27:08;27.70;99.90
15636;DHT22;7917;50.818;6.972;2023-08-20T10:29:36;28.00;99.90
15636;DHT22;7917;50.818;6.972;2023-08-20T10:32:05;28.10;99.90
15636;DHT22;7917;50.818;6.972;2023-08-20T10:34:33;28.30;99.90
15636;DHT22;7917;50.818;6.972;2023-08-20T10:37:02;28.30;99.90
15636;DHT22;7917;50.818;6.972;2023-08-20T10:39:29;28.70;99.90
15636;DHT22;7917;50.818;6.972;2023-08-20T10:42:09;28.60;99.90
15636;DHT22;7917;50.818;6.972;2023-08-20T10:44:57;28.60;99.90
15636;DHT22;7917;50.818;6.972;2023-08-20T10:47:24;28.50;99.90
15636;DHT22;7917;50.818;6.972;2023-08-20T10:49:52;28.50;99.90
15636;DHT22;7917;50.818;6.972;2023-08-20T10:52:19;28.60;99.90
15636;DHT22;7917;50.818;6.972;2023-08-20T10:54:58;28.80;99.90
15636;DHT22;7917;50.818;6.972;2023-08-20T10:57:34;28.80;99.90
15636;DHT22;7917;50.818;6.972;2023-08-20T11:00:03;28.80;99.90
15636;DHT22;7917;50.818;6.972;2023-08-20T11:02:35;29.00;99.90
15636;DHT22;7917;50.818;6.972;2023-08-20T11:05:04;29.50;99.90
15636;DHT22;7917;50.818;6.972;2023-08-20T11:07:31;29.70;99.90
15636;DHT22;7917;50.818;6.972;2023-08-20T11:10:01;29.60;99.90
15636;DHT22;7917;50.818;6.972;2023-08-20T11:12:29;29.30;99.90
15636;DHT22;7917;50.818;6.972;2023-08-20T11:15:00;29.50;99.90
15636;DHT22;7917;50.818;6.972;2023-08-20T11:17:28;29.30;99.90
15636;DHT22;7917;50.818;6.972;2023-08-20T11:19:55;29.60;99.90
15636;DHT22;7917;50.818;6.972;2023-08-20T11:22:23;29.20;99.90
15636;DHT22;7917;50.818;6.972;2023-08-20T11:24:50;28.90;99.90
15636;DHT22;7917;50.818;6.972;2023-08-20T11:27:17;28.70;99.90
15636;DHT22;7917;50.818;6.972;2023-08-20T11:29:43;28.80;99.90
15636;DHT22;7917;50.818;6.972;2023-08-20T11:32:10;28.60;99.90
15636;DHT22;7917;50.818;6.972;2023-08-20T11:34:37;28.70;99.90
15636;DHT22;7917;50.818;6.972;2023-08-20T11:37:05;28.80;99.90
15636;DHT22;7917;50.818;6.972;2023-08-20T11:39:33;28.80;99.90
15636;DHT22;7917;50.818;6.972;2023-08-20T11:42:00;28.30;99.90
15636;DHT22;7917;50.818;6.972;2023-08-20T11:44:27;28.20;99.90
15636;DHT22;7917;50.818;6.972;2023-08-20T11:46:54;28.50;99.90
15636;DHT22;7917;50.818;6.972;2023-08-20T11:49:27;28.90;99.90
15636;DHT22;7917;50.818;6.972;2023-08-20T11:51:55;29.00;99.90
15636;DHT22;7917;50.818;6.972;2023-08-20T11:54:23;29.10;99.90
15636;DHT22;7917;50.818;6.972;2023-08-20T11:56:52;29.10;99.90
15636;DHT22;7917;50.818;6.972;2023-08-20T11:59:28;29.20;99.90
15636;DHT22;7917;50.818;6.972;2023-08-20T12:01:57;29.50;99.90
15636;DHT22;7917;50.818;6.972;2023-08-20T12:04:26;29.60;99.90
15636;DHT22;7917;50.818;6.972;2023-08-20T12:07:02;29.60;99.90
15636;DHT22;7917;50.818;6.972;2023-08-20T12:09:31;29.60;99.90
15636;DHT22;7917;50.818;6.972;2023-08-20T12:11:58;30.00;99.90
15636;DHT22;7917;50.818;6.972;2023-08-20T12:14:25;30.00;99.90
15636;DHT22;7917;50.818;6.972;2023-08-20T12:16:53;30.00;99.90
15636;DHT22;7917;50.818;6.972;2023-08-20T12:19:20;30.00;99.90
15636;DHT22;7917;50.818;6.972;2023-08-20T12:21:47;30.10;99.90
15636;DHT22;7917;50.818;6.972;2023-08-20T12:24:14;30.10;99.90
15636;DHT22;7917;50.818;6.972;2023-08-20T12:26:42;30.20;99.90
15636;DHT22;7917;50.818;6.972;2023-08-20T12:29:09;30.40;99.90
15636;DHT22;7917;50.818;6.972;2023-08-20T12:31:36;30.40;99.90
15636;DHT22;7917;50.818;6.972;2023-08-20T12:34:03;30.20;99.90
15636;DHT22;7917;50.818;6.972;2023-08-20T12:36:30;30.40;99.90
15636;DHT22;7917;50.818;6.972;2023-08-20T12:38:57;30.20;99.90
15636;DHT22;7917;50.818;6.972;2023-08-20T12:41:23;30.30;99.90
15636;DHT22;7917;50.818;6.972;2023-08-20T12:43:50;30.20;99.90
15636;DHT22;7917;50.818;6.972;2023-08-20T12:46:18;30.00;99.90
15636;DHT22;7917;50.818;6.972;2023-08-20T12:48:46;30.10;99.90
15636;DHT22;7917;50.818;6.972;2023-08-20T12:51:12;30.20;99.90
15636;DHT22;7917;50.818;6.972;2023-08-20T12:53:40;30.20;99.90
15636;DHT22;7917;50.818;6.972;2023-08-20T12:56:06;30.20;99.90
15636;DHT22;7917;50.818;6.972;2023-08-20T12:58:33;30.40;99.90
15636;DHT22;7917;50.818;6.972;2023-08-20T13:01:00;30.10;99.90
15636;DHT22;7917;50.818;6.972;2023-08-20T13:03:28;30.50;99.90
15636;DHT22;7917;50.818;6.972;2023-08-20T13:05:55;30.80;99.90
15636;DHT22;7917;50.818;6.972;2023-08-20T13:08:23;31.00;99.90
15636;DHT22;7917;50.818;6.972;2023-08-20T13:10:53;31.00;99.90
15636;DHT22;7917;50.818;6.972;2023-08-20T13:13:22;31.10;99.90
15636;DHT22;7917;50.818;6.972;2023-08-20T13:15:50;31.20;99.90
15636;DHT22;7917;50.818;6.972;2023-08-20T13:18:18;31.20;99.90
15636;DHT22;7917;50.818;6.972;2023-08-20T13:20:46;31.20;99.90
15636;DHT22;7917;50.818;6.972;2023-08-20T13:23:13;31.20;99.90
15636;DHT22;7917;50.818;6.972;2023-08-20T13:25:39;31.20;99.90
15636;DHT22;7917;50.818;6.972;2023-08-20T13:28:06;31.30;99.90
15636;DHT22;7917;50.818;6.972;2023-08-20T13:30:33;31.20;99.90
15636;DHT22;7917;50.818;6.972;2023-08-20T13:33:00;30.60;99.90
15636;DHT22;7917;50.818;6.972;2023-08-20T13:35:27;30.60;99.90
15636;DHT22;7917;50.818;6.972;2023-08-20T13:37:54;30.70;99.90
15636;DHT22;7917;50.818;6.972;2023-08-20T13:40:21;30.70;99.90
15636;DHT22;7917;50.818;6.972;2023-08-20T13:42:48;30.70;99.90
15636;DHT22;7917;50.818;6.972;2023-08-20T13:45:15;30.80;99.90
15636;DHT22;7917;50.818;6.972;2023-08-20T13:47:42;30.90;99.90
15636;DHT22;7917;50.818;6.972;2023-08-20T13:50:10;31.10;99.90
15636;DHT22;7917;50.818;6.972;2023-08-20T13:52:37;31.00;99.90
15636;DHT22;7917;50.818;6.972;2023-08-20T13:55:05;31.10;99.90
15636;DHT22;7917;50.818;6.972;2023-08-20T13:57:32;30.70;99.90
15636;DHT22;7917;50.818;6.972;2023-08-20T13:59:59;30.20;99.90
15636;DHT22;7917;50.818;6.972;2023-08-20T14:02:25;30.20;99.90
15636;DHT22;7917;50.818;6.972;2023-08-20T14:04:52;30.20;99.90
15636;DHT22;7917;50.818;6.972;2023-08-20T14:07:19;30.50;99.90
15636;DHT22;7917;50.818;6.972;2023-08-20T14:09:45;30.80;99.90
15636;DHT22;7917;50.818;6.972;2023-08-20T14:12:13;30.90;99.90
15636;DHT22;7917;50.818;6.972;2023-08-20T14:14:39;30.70;99.90
15636;DHT22;7917;50.818;6.972;2023-08-20T14:17:06;30.90;99.90
15636;DHT22;7917;50.818;6.972;2023-08-20T14:19:35;30.80;99.90
15636;DHT22;7917;50.818;6.972;2023-08-20T14:22:01;30.80;99.90
15636;DHT22;7917;50.818;6.972;2023-08-20T14:24:28;30.30;99.90
15636;DHT22;7917;50.818;6.972;2023-08-20T14:26:54;29.80;99.90
15636;DHT22;7917;50.818;6.972;2023-08-20T14:29:22;29.50;99.90
15636;DHT22;7917;50.818;6.972;2023-08-20T14:31:48;29.60;99.90
15636;DHT22;7917;50.818;6.972;2023-08-20T14:34:15;29.90;99.90
15636;DHT22;7917;50.818;6.972;2023-08-20T14:36:42;30.00;99.90
15636;DHT22;7917;50.818;6.972;2023-08-20T14:39:09;30.00;99.90
15636;DHT22;7917;50.818;6.972;2023-08-20T14:41:35;29.90;99.90
15636;DHT22;7917;50.818;6.972;2023-08-20T14:44:03;29.90;99.90
15636;DHT22;7917;50.818;6.972;2023-08-20T14:46:30;29.90;99.90
15636;DHT22;7917;50.818;6.972;2023-08-20T14:48:57;29.70;99.90
15636;DHT22;7917;50.818;6.972;2023-08-20T14:51:24;30.20;99.90
15636;DHT22;7917;50.818;6.972;2023-08-20T14:53:51;31.10;99.90
15636;DHT22;7917;50.818;6.972;2023-08-20T14:56:18;31.70;99.90
15636;DHT22;7917;50.818;6.972;2023-08-20T14:58:44;32.60;99.90
15636;DHT22;7917;50.818;6.972;2023-08-20T15:01:11;32.80;99.90
15636;DHT22;7917;50.818;6.972;2023-08-20T15:03:39;33.10;99.90
15636;DHT22;7917;50.818;6.972;2023-08-20T15:06:06;33.00;99.90
15636;DHT22;7917;50.818;6.972;2023-08-20T15:08:32;33.10;99.90
15636;DHT22;7917;50.818;6.972;2023-08-20T15:11:00;33.20;99.90
15636;DHT22;7917;50.818;6.972;2023-08-20T15:13:29;33.30;99.90
15636;DHT22;7917;50.818;6.972;2023-08-20T15:15:56;33.40;99.90
15636;DHT22;7917;50.818;6.972;2023-08-20T15:18:23;33.30;99.90
15636;DHT22;7917;50.818;6.972;2023-08-20T15:20:54;33.20;99.90
15636;DHT22;7917;50.818;6.972;2023-08-20T15:23:22;33.20;99.90
15636;DHT22;7917;50.818;6.972;2023-08-20T15:25:51;32.80;99.90
15636;DHT22;7917;50.818;6.972;2023-08-20T15:28:18;32.20;99.90
15636;DHT22;7917;50.818;6.972;2023-08-20T15:30:45;31.70;99.90
15636;DHT22;7917;50.818;6.972;2023-08-20T15:33:11;31.30;99.90
15636;DHT22;7917;50.818;6.972;2023-08-20T15:35:39;30.40;99.90
15636;DHT22;7917;50.818;6.972;2023-08-20T15:38:07;30.00;99.90
15636;DHT22;7917;50.818;6.972;2023-08-20T15:40:34;29.50;99.90
15636;DHT22;7917;50.818;6.972;2023-08-20T15:43:01;29.40;99.90
15636;DHT22;7917;50.818;6.972;2023-08-20T15:45:28;29.40;99.90
15636;DHT22;7917;50.818;6.972;2023-08-20T15:47:55;29.50;99.90
15636;DHT22;7917;50.818;6.972;2023-08-20T15:50:21;29.80;99.90
15636;DHT22;7917;50.818;6.972;2023-08-20T15:52:48;29.80;99.90
15636;DHT22;7917;50.818;6.972;2023-08-20T15:55:16;29.80;99.90